Time;durP1;ratioP1;P1;durP2;ratioP2;P2;SDS_P1;SDS_P2;PMS_P1;PMS_P2;Temp;Humidity;BMP_temperature;BMP_pressure;BME280_temperature;BME280_humidity;BME280_pressure;Samples;Min_cycle;Max_cycle;Signal;HPM_P1;HPM_P2
2023/10/04 00:01:10;;;;;;;;;;;17.30;58.60;;;12.98;100.00;96636.34;4970603;28;19917;-44
2023/10/04 00:03:38;;;;;;;;;;;17.30;58.60;;;12.96;100.00;96632.03;4972015;28;19956;-44
2023/10/04 00:06:04;;;;;;;;;;;17.20;58.60;;;12.92;100.00;96635.47;4972118;28;19909;-43
2023/10/04 00:08:30;;;;;;;;;;;17.20;58.70;;;12.93;100.00;96640.56;4970817;28;19964;-44
2023/10/04 00:10:55;;;;;;;;;;;17.20;58.70;;;12.93;100.00;96645.91;4971931;28;19917;-48
2023/10/04 00:13:21;;;;;;;;;;;17.20;58.80;;;12.91;100.00;96645.38;4980107;28;20403;-53
2023/10/04 00:15:47;;;;;;;;;;;17.20;58.90;;;12.90;100.00;96637.59;4972093;28;19916;-53
2023/10/04 00:18:15;;;;;;;;;;;17.20;58.90;;;12.89;100.00;96634.09;4972176;28;19968;-53
2023/10/04 00:20:41;;;;;;;;;;;17.20;58.90;;;12.85;100.00;96629.50;4970343;28;19913;-49
2023/10/04 00:23:08;;;;;;;;;;;17.10;58.90;;;12.81;100.00;96631.88;4972147;28;19909;-54
2023/10/04 00:25:34;;;;;;;;;;;17.10;58.90;;;12.71;100.00;96635.25;4976841;28;19909;-52
2023/10/04 00:28:02;;;;;;;;;;;17.10;59.00;;;12.76;100.00;96636.41;4972253;28;19909;-50
2023/10/04 00:30:29;;;;;;;;;;;17.00;59.00;;;12.77;100.00;96638.00;4971312;28;19957;-51
2023/10/04 00:32:58;;;;;;;;;;;17.00;59.00;;;12.76;100.00;96629.19;4971245;28;19909;-50
2023/10/04 00:35:25;;;;;;;;;;;17.00;59.00;;;12.73;100.00;96630.47;4972311;28;19918;-51
2023/10/04 00:37:57;;;;;;;;;;;17.00;59.60;;;12.69;100.00;96629.38;4953667;28;20250;-53
2023/10/04 00:40:26;;;;;;;;;;;17.00;59.00;;;12.63;100.00;96619.69;4971762;28;19910;-49
2023/10/04 00:42:54;;;;;;;;;;;16.90;58.90;;;12.53;100.00;96619.56;4971046;28;20044;-51
2023/10/04 00:45:22;;;;;;;;;;;16.90;58.90;;;12.42;100.00;96621.34;4972101;28;19917;-50
2023/10/04 00:47:52;;;;;;;;;;;16.70;58.80;;;12.24;100.00;96617.13;4971863;28;19910;-48
2023/10/04 00:50:27;;;;;;;;;;;16.70;58.90;;;12.15;100.00;96617.81;4970457;28;20008;-48
2023/10/04 00:52:59;;;;;;;;;;;16.60;58.90;;;12.10;100.00;96620.44;4972164;28;20029;-47
2023/10/04 00:55:26;;;;;;;;;;;16.50;58.90;;;12.01;100.00;96620.84;4970818;28;19910;-47
2023/10/04 00:57:56;;;;;;;;;;;16.40;58.90;;;11.91;100.00;96617.22;4954991;28;19999;-48
2023/10/04 01:00:24;;;;;;;;;;;16.30;58.90;;;11.80;100.00;96614.41;4954339;28;19910;-48
2023/10/04 01:02:50;;;;;;;;;;;16.20;59.00;;;11.68;100.00;96615.56;4972471;28;20007;-47
2023/10/04 01:05:17;;;;;;;;;;;16.10;59.00;;;11.53;100.00;96600.16;4971705;28;19961;-50
2023/10/04 01:07:46;;;;;;;;;;;16.00;59.00;;;11.43;100.00;96602.69;4955193;28;19913;-54
2023/10/04 01:10:15;;;;;;;;;;;15.80;59.00;;;11.31;100.00;96598.25;4972304;28;19914;-53
2023/10/04 01:12:46;;;;;;;;;;;15.80;59.10;;;11.19;100.00;96605.53;4975007;28;19918;-51
2023/10/04 01:17:53;;;;;;;;;;;15.60;59.30;;;11.01;100.00;96603.13;4975448;28;19909;-50
2023/10/04 01:20:27;;;;;;;;;;;15.50;59.40;;;10.98;100.00;96593.75;4973770;28;19945;-50
2023/10/04 01:22:54;;;;;;;;;;;15.50;59.60;;;10.98;100.00;96585.75;4974164;28;20365;-47
2023/10/04 01:25:20;;;;;;;;;;;15.40;59.60;;;11.02;100.00;96592.19;4974541;28;19952;-54
2023/10/04 01:27:46;;;;;;;;;;;15.40;59.80;;;11.01;100.00;96579.13;4975245;28;19917;-49
2023/10/04 01:30:13;;;;;;;;;;;15.30;59.80;;;11.04;100.00;96583.97;4974891;28;19916;-52
2023/10/04 01:32:39;;;;;;;;;;;15.30;59.90;;;11.07;100.00;96586.97;4975922;28;19917;-51
2023/10/04 01:35:06;;;;;;;;;;;15.30;60.10;;;11.10;100.00;96586.47;4974885;28;19952;-48
2023/10/04 01:37:38;;;;;;;;;;;15.40;60.20;;;11.14;100.00;96586.00;4973876;28;19917;-53
2023/10/04 01:40:12;;;;;;;;;;;15.30;60.20;;;11.13;100.00;96581.72;4974679;28;19963;-51
2023/10/04 01:42:41;;;;;;;;;;;15.40;60.30;;;11.14;100.00;96578.00;4971887;28;19975;-49
2023/10/04 01:45:18;;;;;;;;;;;15.30;60.20;;;11.08;100.00;96575.22;4974706;28;20430;-50
2023/10/04 01:47:45;;;;;;;;;;;15.30;60.20;;;11.04;100.00;96592.78;4968478;28;19971;-50
2023/10/04 01:50:11;;;;;;;;;;;15.30;60.20;;;10.99;100.00;96582.03;4973228;28;19909;-52
2023/10/04 01:52:45;;;;;;;;;;;15.30;60.20;;;10.94;100.00;96576.63;4979637;28;19964;-53
2023/10/04 01:55:12;;;;;;;;;;;15.20;60.10;;;10.90;100.00;96583.47;4973456;28;19910;-49
2023/10/04 01:57:39;;;;;;;;;;;15.20;60.30;;;10.84;100.00;96584.44;4974822;28;20335;-50
2023/10/04 02:00:10;;;;;;;;;;;15.10;60.30;;;10.77;100.00;96578.47;4974040;28;20037;-51
2023/10/04 02:02:40;;;;;;;;;;;15.10;60.40;;;10.79;100.00;96581.69;4970251;28;19957;-51
2023/10/04 02:05:11;;;;;;;;;;;15.10;60.50;;;10.83;100.00;96575.63;4974619;28;20291;-48
2023/10/04 02:07:41;;;;;;;;;;;15.20;60.70;;;10.89;100.00;96580.00;4966029;28;20008;-51
2023/10/04 02:10:14;;;;;;;;;;;15.20;60.90;;;10.93;100.00;96575.00;4973852;28;19913;-50
2023/10/04 02:12:42;;;;;;;;;;;15.20;60.90;;;11.01;100.00;96579.13;4972691;28;20017;-51
2023/10/04 02:15:12;;;;;;;;;;;15.20;61.00;;;11.08;100.00;96575.22;4973301;28;20008;-50
2023/10/04 02:17:38;;;;;;;;;;;15.30;61.20;;;11.15;100.00;96575.06;4982358;28;20438;-48
2023/10/04 02:20:09;;;;;;;;;;;15.30;61.20;;;11.23;100.00;96572.00;4972655;28;19910;-52
2023/10/04 02:22:36;;;;;;;;;;;15.40;61.30;;;11.35;100.00;96566.56;4973497;28;19952;-53
2023/10/04 02:25:06;;;;;;;;;;;15.50;61.40;;;11.44;100.00;96569.59;4972591;28;19910;-51
2023/10/04 02:27:32;;;;;;;;;;;15.50;61.40;;;11.50;100.00;96572.13;4974196;28;19995;-48
2023/10/04 02:29:58;;;;;;;;;;;15.60;61.40;;;11.54;100.00;96573.25;4973740;28;19921;-50
2023/10/04 02:32:25;;;;;;;;;;;15.70;61.50;;;11.61;100.00;96572.25;4972167;28;19987;-51
2023/10/04 02:34:52;;;;;;;;;;;15.80;61.50;;;11.68;100.00;96584.34;4974230;28;20300;-54
2023/10/04 02:37:19;;;;;;;;;;;15.80;61.40;;;11.72;100.00;96574.81;4955751;28;19996;-48
2023/10/04 02:39:46;;;;;;;;;;;15.90;61.40;;;11.77;100.00;96580.19;4973487;28;20470;-52
2023/10/04 02:42:12;;;;;;;;;;;16.00;61.40;;;11.78;100.00;96573.84;4973650;28;20388;-48
2023/10/04 02:44:39;;;;;;;;;;;16.00;61.30;;;11.84;100.00;96576.53;4972123;28;19909;-51
2023/10/04 02:47:09;;;;;;;;;;;16.00;61.20;;;11.87;100.00;96578.75;4956504;28;20300;-49
2023/10/04 02:49:39;;;;;;;;;;;16.10;61.20;;;11.85;100.00;96570.19;4965780;28;20388;-46
2023/10/04 02:52:11;;;;;;;;;;;16.10;61.20;;;11.88;100.00;96567.84;4973266;28;19972;-48
2023/10/04 02:54:38;;;;;;;;;;;16.10;61.10;;;11.90;100.00;96570.25;4973322;28;19910;-49
2023/10/04 02:57:05;;;;;;;;;;;16.10;61.10;;;11.93;100.00;96575.09;4957780;28;19910;-49
2023/10/04 02:59:32;;;;;;;;;;;16.20;61.20;;;11.98;100.00;96581.31;4973140;28;19917;-48
2023/10/04 03:01:58;;;;;;;;;;;16.20;61.20;;;12.01;100.00;96588.81;4974327;28;19921;-48
2023/10/04 03:04:24;;;;;;;;;;;16.30;61.20;;;12.03;100.00;96584.03;4973410;28;19910;-49
2023/10/04 03:06:51;;;;;;;;;;;16.30;61.20;;;12.04;100.00;96590.19;4972266;28;20717;-50
2023/10/04 03:09:18;;;;;;;;;;;16.30;61.10;;;12.06;100.00;96592.59;4972902;28;20324;-48
2023/10/04 03:11:44;;;;;;;;;;;16.30;61.10;;;12.07;100.00;96594.22;4972491;28;19965;-49
2023/10/04 03:14:12;;;;;;;;;;;16.30;61.10;;;12.02;100.00;96586.94;4956118;28;19956;-48
2023/10/04 03:16:42;;;;;;;;;;;16.30;61.00;;;11.99;100.00;96582.91;4959931;28;19953;-50
2023/10/04 03:19:10;;;;;;;;;;;16.30;61.10;;;11.99;100.00;96582.09;4975221;28;19914;-49
2023/10/04 03:21:44;;;;;;;;;;;16.30;61.20;;;11.98;100.00;96580.50;4970646;28;19924;-53
2023/10/04 03:24:10;;;;;;;;;;;16.30;61.20;;;11.95;100.00;96586.34;4977099;28;20376;-49
2023/10/04 03:26:37;;;;;;;;;;;16.20;61.10;;;11.91;100.00;96585.19;4972167;28;19929;-51
2023/10/04 03:29:04;;;;;;;;;;;16.20;61.10;;;11.88;100.00;96591.06;4972597;28;19913;-48
2023/10/04 03:31:33;;;;;;;;;;;16.20;61.10;;;11.87;100.00;96597.44;4974284;28;20343;-48
2023/10/04 03:33:59;;;;;;;;;;;16.10;61.10;;;11.84;100.00;96598.69;4972555;28;19917;-49
2023/10/04 03:36:25;;;;;;;;;;;16.10;61.10;;;11.82;100.00;96595.50;4972999;28;19964;-49
2023/10/04 03:38:51;;;;;;;;;;;16.10;61.20;;;11.78;100.00;96595.19;4954542;28;20387;-49
2023/10/04 03:41:19;;;;;;;;;;;16.00;61.20;;;11.74;100.00;96599.38;4972322;28;19918;-48
2023/10/04 03:43:45;;;;;;;;;;;16.00;61.20;;;11.69;100.00;96593.16;4971944;28;20299;-49
2023/10/04 03:46:17;;;;;;;;;;;15.90;61.20;;;11.63;100.00;96602.19;4972400;28;20004;-47
2023/10/04 03:48:49;;;;;;;;;;;15.90;61.20;;;11.59;100.00;96604.50;4971748;28;19913;-49
2023/10/04 03:51:20;;;;;;;;;;;15.80;61.20;;;11.52;100.00;96603.88;4972192;28;19910;-50
2023/10/04 03:53:47;;;;;;;;;;;15.80;61.20;;;11.47;100.00;96601.97;4972684;28;20439;-49
2023/10/04 03:56:14;;;;;;;;;;;15.80;61.30;;;11.36;100.00;96602.84;4971408;28;19949;-54
2023/10/04 03:58:40;;;;;;;;;;;15.70;61.30;;;11.33;100.00;96608.69;4987266;28;19916;-52
2023/10/04 04:01:07;;;;;;;;;;;15.70;61.40;;;11.30;100.00;96603.81;4972177;28;19914;-46
2023/10/04 04:03:35;;;;;;;;;;;15.70;61.50;;;11.29;100.00;96589.69;4971782;28;27143;-43
2023/10/04 04:06:01;;;;;;;;;;;15.60;61.50;;;11.27;100.00;96591.78;4972844;28;19913;-45
2023/10/04 04:08:26;;;;;;;;;;;15.60;61.60;;;11.23;100.00;96598.66;4970819;28;19914;-46
2023/10/04 04:10:53;;;;;;;;;;;15.60;61.60;;;11.23;100.00;96598.66;4972143;28;19914;-48
2023/10/04 04:13:19;;;;;;;;;;;15.60;61.60;;;11.21;100.00;96594.63;4969639;28;19921;-47
2023/10/04 04:15:46;;;;;;;;;;;15.60;61.60;;;11.17;100.00;96596.97;4972229;28;20552;-52
2023/10/04 04:18:20;;;;;;;;;;;15.50;61.60;;;11.15;100.00;96596.41;4971779;28;19949;-51
2023/10/04 04:20:47;;;;;;;;;;;15.50;61.60;;;11.16;100.00;96603.38;4971069;28;19963;-50
2023/10/04 04:23:15;;;;;;;;;;;15.50;61.60;;;11.16;100.00;96608.69;4972482;28;20320;-46
2023/10/04 04:25:42;;;;;;;;;;;15.50;61.60;;;11.15;100.00;96604.41;4971021;28;19910;-43
2023/10/04 04:28:12;;;;;;;;;;;15.40;61.60;;;11.14;100.00;96608.13;4959456;28;19999;-43
2023/10/04 04:30:39;;;;;;;;;;;15.40;61.50;;;11.09;100.00;96603.53;4979387;28;20277;-46
2023/10/04 04:33:07;;;;;;;;;;;15.40;61.60;;;11.07;100.00;96604.81;4973027;28;19910;-46
2023/10/04 04:38:18;;;;;;;;;;;15.40;61.70;;;11.11;100.00;96614.75;4966928;28;20004;-45
2023/10/04 04:40:48;;;;;;;;;;;15.40;61.80;;;11.02;100.00;96613.53;4967489;28;19914;-49
2023/10/04 04:45:55;;;;;;;;;;;15.40;61.80;;;11.03;100.00;96619.66;4974570;28;19914;-46
2023/10/04 04:48:26;;;;;;;;;;;15.30;61.70;;;11.04;100.00;96624.78;4976192;28;19910;-47
2023/10/04 04:50:55;;;;;;;;;;;15.30;61.70;;;11.05;100.00;96631.72;4974660;28;19910;-47
2023/10/04 04:53:33;;;;;;;;;;;15.30;61.80;;;10.98;100.00;96617.72;4975840;28;19910;-45
2023/10/04 04:56:00;;;;;;;;;;;15.30;62.60;;;10.99;100.00;96621.22;4967187;28;19917;-47
2023/10/04 04:58:26;;;;;;;;;;;15.30;61.80;;;11.00;100.00;96628.16;4976324;28;19913;-46
2023/10/04 05:00:56;;;;;;;;;;;15.30;61.80;;;11.02;100.00;96626.06;4974231;28;20296;-49
2023/10/04 05:03:26;;;;;;;;;;;15.30;61.90;;;11.07;100.00;96623.47;4975292;28;19953;-47
2023/10/04 05:05:55;;;;;;;;;;;15.30;61.90;;;11.08;100.00;96627.75;4976000;28;19910;-45
2023/10/04 05:08:22;;;;;;;;;;;15.30;61.90;;;11.15;100.00;96631.06;4975020;28;20262;-47
2023/10/04 05:10:49;;;;;;;;;;;15.30;62.00;;;11.18;100.00;96624.44;4974818;28;19909;-43
2023/10/04 05:13:18;;;;;;;;;;;15.40;62.00;;;11.15;100.00;96625.72;4974023;28;19917;-45
2023/10/04 05:15:45;;;;;;;;;;;15.40;62.00;;;11.16;100.00;96623.91;4975274;28;19918;-48
2023/10/04 05:18:16;;;;;;;;;;;15.50;62.00;;;11.22;100.00;96634.41;4974990;28;20060;-48
2023/10/04 05:20:51;;;;;;;;;;;15.50;62.00;;;11.30;100.00;96635.84;4973947;28;20308;-45
2023/10/04 05:23:19;;;;;;;;;;;15.50;62.00;;;11.38;100.00;96646.13;4970246;28;20093;-45
2023/10/04 05:25:45;;;;;;;;;;;15.60;62.00;;;11.42;100.00;96647.22;4973513;28;19917;-48
2023/10/04 05:28:11;;;;;;;;;;;15.60;61.90;;;11.49;100.00;96653.19;4974185;28;19910;-51
2023/10/04 05:30:44;;;;;;;;;;;15.70;61.90;;;11.51;100.00;96653.78;4979191;28;20308;-48
2023/10/04 05:33:13;;;;;;;;;;;15.70;61.80;;;11.52;100.00;96650.03;4977773;28;19910;-46
2023/10/04 05:35:44;;;;;;;;;;;15.80;61.80;;;11.51;100.00;96655.63;4976319;28;19924;-45
2023/10/04 05:38:12;;;;;;;;;;;15.80;61.60;;;11.53;100.00;96656.19;4974487;28;19914;-49
2023/10/04 05:40:44;;;;;;;;;;;15.90;61.60;;;11.55;100.00;96654.09;4980064;28;19959;-52
2023/10/04 05:43:14;;;;;;;;;;;15.90;61.50;;;11.58;100.00;96658.94;4972041;28;22742;-47
2023/10/04 05:45:42;;;;;;;;;;;16.00;61.50;;;11.59;100.00;96665.88;4975239;28;19910;-48
2023/10/04 05:48:12;;;;;;;;;;;16.00;61.50;;;11.59;100.00;96671.22;4981666;28;20406;-53
2023/10/04 05:50:39;;;;;;;;;;;16.00;61.40;;;11.61;100.00;96663.00;4982045;28;19917;-52
2023/10/04 05:53:07;;;;;;;;;;;16.10;61.30;;;11.63;100.00;96672.38;4979733;28;19918;-52
2023/10/04 05:55:37;;;;;;;;;;;16.10;61.30;;;11.68;100.00;96676.97;4988972;28;20292;-52
2023/10/04 05:58:10;;;;;;;;;;;16.20;61.30;;;11.70;100.00;96678.34;4985430;28;19941;-50
2023/10/04 06:00:42;;;;;;;;;;;16.20;61.30;;;11.74;100.00;96676.78;4992679;28;19940;-49
2023/10/04 06:03:12;;;;;;;;;;;16.30;61.30;;;11.76;100.00;96679.22;4982064;28;19922;-52
2023/10/04 06:05:40;;;;;;;;;;;16.30;61.20;;;11.81;100.00;96685.44;4981672;28;20357;-45
2023/10/04 06:08:15;;;;;;;;;;;16.40;61.10;;;11.79;100.00;96670.72;4989334;28;19920;-49
2023/10/04 06:10:43;;;;;;;;;;;16.40;61.00;;;11.88;100.00;96673.81;4984098;28;19952;-46
2023/10/04 06:13:12;;;;;;;;;;;16.50;60.90;;;11.94;100.00;96670.97;4980299;28;20025;-50
2023/10/04 06:15:50;;;;;;;;;;;16.60;60.90;;;11.99;100.00;96673.69;4980502;28;19983;-45
2023/10/04 06:18:16;;;;;;;;;;;16.60;60.70;;;12.08;100.00;96681.28;4989851;28;19922;-43
2023/10/04 06:20:43;;;;;;;;;;;16.60;60.60;;;12.11;100.00;96678.13;4988868;28;20273;-46
2023/10/04 06:23:14;;;;;;;;;;;16.70;60.50;;;12.11;100.00;96678.94;4987218;28;19914;-45
2023/10/04 06:25:52;;;;;;;;;;;16.70;60.50;;;12.16;100.00;96684.34;4986304;28;19955;-45
2023/10/04 06:28:18;;;;;;;;;;;16.70;60.30;;;12.20;100.00;96684.66;4985188;28;19909;-45
2023/10/04 06:30:52;;;;;;;;;;;16.70;60.30;;;12.14;100.00;96688.31;4992436;28;19909;-45
2023/10/04 06:33:18;;;;;;;;;;;16.80;60.20;;;12.10;100.00;96677.31;4989475;28;19971;-43
2023/10/04 06:35:46;;;;;;;;;;;16.80;60.10;;;12.13;100.00;96684.03;4989510;28;19916;-46
2023/10/04 06:38:13;;;;;;;;;;;16.70;60.00;;;12.14;100.00;96685.66;4984187;28;19996;-44
2023/10/04 06:40:40;;;;;;;;;;;16.80;60.00;;;12.18;100.00;96694.78;4992891;28;20291;-43
2023/10/04 06:43:09;;;;;;;;;;;16.80;60.00;;;12.23;100.00;96684.97;4988387;28;19925;-46
2023/10/04 06:45:37;;;;;;;;;;;16.90;60.00;;;12.22;100.00;96691.38;4983285;28;19910;-44
2023/10/04 06:48:05;;;;;;;;;;;16.90;59.90;;;12.27;100.00;96686.06;4992869;28;19910;-46
2023/10/04 06:50:35;;;;;;;;;;;16.90;59.80;;;12.30;99.96;96682.09;4989714;28;19924;-50
2023/10/04 06:53:03;;;;;;;;;;;17.00;59.80;;;12.33;99.88;96676.28;4987559;28;19976;-43
2023/10/04 06:55:31;;;;;;;;;;;17.10;59.80;;;12.41;98.58;96683.88;4989809;28;19999;-43
2023/10/04 06:57:57;;;;;;;;;;;17.20;59.70;;;12.48;98.25;96687.16;4992790;28;19909;-47
2023/10/04 07:00:35;;;;;;;;;;;17.20;59.60;;;12.50;98.15;96676.19;4993529;28;20287;-43
2023/10/04 07:03:03;;;;;;;;;;;17.20;59.50;;;12.58;97.30;96672.28;4988546;28;19984;-50
2023/10/04 07:05:49;;;;;;;;;;;17.40;59.50;;;12.69;97.35;96674.00;4992778;28;19917;-51
2023/10/04 07:08:16;;;;;;;;;;;17.40;59.40;;;12.77;97.15;96665.53;4986113;28;19913;-49
2023/10/04 07:10:43;;;;;;;;;;;17.40;59.80;;;12.89;96.84;96670.75;4992846;28;19921;-52
2023/10/04 07:13:09;;;;;;;;;;;17.60;59.20;;;12.98;95.41;96677.25;4990009;28;19922;-47
2023/10/04 07:15:35;;;;;;;;;;;17.70;59.00;;;13.08;95.18;96673.84;4979245;28;20383;-44
2023/10/04 07:18:06;;;;;;;;;;;17.80;58.90;;;13.16;93.80;96684.09;4973973;28;19914;-43
2023/10/04 07:20:33;;;;;;;;;;;18.00;58.80;;;13.33;92.09;96668.75;4982277;28;19915;-45
2023/10/04 07:23:03;;;;;;;;;;;18.20;58.70;;;13.68;91.89;96663.94;4985313;28;19924;-50
2023/10/04 07:25:35;;;;;;;;;;;18.60;58.50;;;14.08;90.84;96653.44;4987471;28;19982;-46
2023/10/04 07:28:05;;;;;;;;;;;19.00;58.40;;;14.52;87.77;96665.72;4991701;28;19916;-46
2023/10/04 07:30:36;;;;;;;;;;;19.40;58.10;;;14.94;84.42;96667.44;4992551;28;19917;-45
2023/10/04 07:33:02;;;;;;;;;;;19.90;57.80;;;15.22;82.06;96668.81;4986148;28;19916;-44
2023/10/04 07:35:31;;;;;;;;;;;20.40;57.50;;;15.52;77.85;96669.91;4992575;28;19952;-45
2023/10/04 07:37:58;;;;;;;;;;;20.70;57.10;;;15.86;75.91;96678.22;4987319;28;19916;-44
2023/10/04 07:40:27;;;;;;;;;;;21.10;56.80;;;16.09;73.23;96669.56;4992526;28;19913;-49
2023/10/04 07:42:54;;;;;;;;;;;21.50;56.40;;;15.91;72.51;96673.63;4989438;28;19967;-44
2023/10/04 07:45:25;;;;;;;;;;;21.80;55.90;;;15.96;70.39;96672.81;4995247;28;19963;-44
2023/10/04 07:47:52;;;;;;;;;;;22.10;55.40;;;16.04;70.31;96669.56;4992246;28;19954;-46
2023/10/04 07:50:23;;;;;;;;;;;22.30;54.90;;;16.30;70.89;96674.88;4987833;28;19935;-42
2023/10/04 07:52:51;;;;;;;;;;;22.50;54.60;;;16.04;71.64;96677.63;4974612;28;20384;-52
2023/10/04 07:55:20;;;;;;;;;;;22.70;54.40;;;16.36;67.63;96679.16;4987113;28;20356;-52
2023/10/04 07:57:46;;;;;;;;;;;22.90;54.10;;;16.62;66.89;96685.25;4974856;28;19992;-52
2023/10/04 08:00:17;;;;;;;;;;;23.00;53.70;;;16.93;65.44;96687.81;4991989;28;19963;-44
2023/10/04 08:02:46;;;;;;;;;;;23.20;53.40;;;16.85;64.99;96689.97;4977395;28;20400;-46
2023/10/04 08:05:19;;;;;;;;;;;23.40;53.10;;;16.98;63.78;96685.88;4977039;28;20280;-44
2023/10/04 08:07:51;;;;;;;;;;;23.50;52.70;;;17.00;63.84;96688.31;4978145;28;19944;-42
2023/10/04 08:10:18;;;;;;;;;;;23.70;52.50;;;16.90;65.28;96686.47;4974408;28;19914;-42
2023/10/04 08:12:45;;;;;;;;;;;23.80;52.30;;;17.01;64.39;96696.09;4979943;28;19917;-47
2023/10/04 08:15:13;;;;;;;;;;;23.80;52.00;;;17.46;63.48;96701.47;4981670;28;19971;-42
2023/10/04 08:17:43;;;;;;;;;;;24.00;51.90;;;17.70;60.01;96694.22;4969045;28;19969;-46
2023/10/04 08:20:12;;;;;;;;;;;24.20;51.70;;;17.87;61.65;96695.75;4974655;28;20292;-45
2023/10/04 08:22:43;;;;;;;;;;;24.40;51.50;;;17.66;60.84;96695.09;4981648;28;19917;-49
2023/10/04 08:25:23;;;;;;;;;;;24.60;51.40;;;17.93;60.63;96697.31;4977849;28;19968;-52
2023/10/04 08:27:49;;;;;;;;;;;24.70;50.90;;;18.40;59.31;96683.06;4973448;28;19960;-45
2023/10/04 08:30:18;;;;;;;;;;;24.90;50.60;;;18.61;58.75;96675.50;4982220;28;19952;-48
2023/10/04 08:32:51;;;;;;;;;;;25.00;50.10;;;18.71;57.23;96680.00;4966509;28;20012;-45
2023/10/04 08:35:21;;;;;;;;;;;25.20;49.80;;;18.93;56.88;96682.97;4986169;28;20011;-46
2023/10/04 08:37:53;;;;;;;;;;;25.30;49.20;;;19.13;57.04;96681.06;4983475;28;19971;-53
2023/10/04 08:40:23;;;;;;;;;;;25.50;48.80;;;19.16;56.02;96683.97;4983723;28;20337;-44
2023/10/04 08:42:53;;;;;;;;;;;25.60;48.40;;;19.47;55.77;96688.13;4973051;28;20008;-53
2023/10/04 08:45:20;;;;;;;;;;;25.70;48.20;;;19.50;53.89;96682.13;4983402;28;20372;-43
2023/10/04 08:47:57;;;;;;;;;;;25.90;48.00;;;19.59;53.67;96680.34;4991422;28;19913;-44
2023/10/04 08:50:40;;;;;;;;;;;26.00;47.70;;;19.83;52.80;96681.03;4978453;28;19910;-45
2023/10/04 08:53:37;;;;;;;;;;;26.20;47.50;;;19.91;52.27;96681.47;4981235;28;20388;-45
2023/10/04 08:56:13;;;;;;;;;;;26.30;47.10;;;20.08;51.94;96666.25;4966885;28;19909;-43
2023/10/04 08:58:40;;;;;;;;;;;26.50;46.60;;;19.85;52.08;96667.22;4978870;28;19916;-43
2023/10/04 09:01:06;;;;;;;;;;;26.60;46.30;;;19.20;52.62;96670.69;4971001;28;19944;-45
2023/10/04 09:03:34;;;;;;;;;;;26.70;46.10;;;19.26;54.04;96674.09;4971615;28;19933;-44
2023/10/04 09:06:07;;;;;;;;;;;26.70;46.10;;;19.66;52.22;96669.19;4954932;28;19914;-44
2023/10/04 09:08:34;;;;;;;;;;;26.80;45.80;;;19.72;54.14;96659.91;4971444;28;19967;-43
2023/10/04 09:11:01;;;;;;;;;;;26.90;45.50;;;19.63;52.43;96654.34;4971663;28;19918;-45
2023/10/04 09:13:27;;;;;;;;;;;27.00;45.40;;;19.45;53.63;96650.56;4970374;28;19918;-43
2023/10/04 09:15:52;;;;;;;;;;;27.10;45.30;;;19.52;52.83;96653.69;4971890;28;19920;-43
2023/10/04 09:18:30;;;;;;;;;;;27.10;45.00;;;19.55;53.49;96646.88;4971572;28;20288;-43
2023/10/04 09:20:56;;;;;;;;;;;27.20;44.90;;;19.88;51.38;96643.09;4970752;28;20008;-49
2023/10/04 09:23:23;;;;;;;;;;;27.20;44.70;;;19.63;52.94;96638.13;4971264;28;19917;-44
2023/10/04 09:25:49;;;;;;;;;;;27.30;44.40;;;20.21;51.90;96644.91;4953858;28;19910;-45
2023/10/04 09:28:15;;;;;;;;;;;27.40;44.30;;;20.63;49.64;96640.34;4977994;28;19963;-44
2023/10/04 09:30:41;;;;;;;;;;;27.50;44.20;;;21.01;50.82;96641.63;4971970;28;19949;-43
2023/10/04 09:33:28;;;;;;;;;;;27.80;44.20;;;21.20;48.71;96641.47;4973635;28;19910;-44
2023/10/04 09:35:55;;;;;;;;;;;28.00;43.90;;;21.37;48.89;96640.84;4974690;28;19913;-44
2023/10/04 09:38:25;;;;;;;;;;;28.20;43.60;;;21.38;48.43;96641.66;4983967;28;19913;-46
2023/10/04 09:40:51;;;;;;;;;;;28.40;43.40;;;21.39;50.24;96635.09;4977204;28;20379;-53
2023/10/04 09:43:18;;;;;;;;;;;28.50;43.20;;;21.73;48.09;96636.44;4971977;28;19917;-50
2023/10/04 09:45:59;;;;;;;;;;;28.70;43.10;;;22.08;48.56;96634.69;4989204;28;19917;-50
2023/10/04 09:48:32;;;;;;;;;;;29.00;43.00;;;22.17;46.73;96616.56;4995335;28;20291;-52
2023/10/04 09:51:06;;;;;;;;;;;29.20;42.80;;;22.15;47.36;96622.25;4988584;28;19909;-49
2023/10/04 09:53:38;;;;;;;;;;;29.40;42.60;;;22.44;45.63;96614.72;4993970;28;19909;-52
2023/10/04 09:56:06;;;;;;;;;;;29.70;43.20;;;22.67;45.50;96610.78;4990016;28;19909;-52
2023/10/04 09:58:33;;;;;;;;;;;30.00;42.40;;;22.94;45.44;96614.34;4990494;28;19909;-51
2023/10/04 10:01:10;;;;;;;;;;;30.20;42.10;;;23.08;44.10;96613.06;4990780;28;19909;-54
2023/10/04 10:03:50;;;;;;;;;;;30.40;41.70;;;21.86;45.52;96620.06;4985778;28;19916;-54
2023/10/04 10:06:22;;;;;;;;;;;30.60;41.40;;;22.36;46.05;96610.88;4994526;28;19924;-54
2023/10/04 10:08:57;;;;;;;;;;;30.60;41.10;;;22.95;45.04;96602.38;4987200;28;19915;-55
2023/10/04 10:11:24;;;;;;;;;;;30.70;40.90;;;23.21;41.96;96596.91;4977462;28;20011;-54
2023/10/04 10:13:52;;;;;;;;;;;31.00;40.80;;;23.54;41.56;96602.63;4989118;28;19917;-50
2023/10/04 10:16:19;;;;;;;;;;;31.10;40.50;;;23.46;42.20;96595.28;4976901;28;19909;-50
2023/10/04 10:18:48;;;;;;;;;;;31.40;40.30;;;23.46;42.52;96604.25;4969573;28;19920;-49
2023/10/04 10:21:13;;;;;;;;;;;31.50;40.10;;;23.67;42.73;96593.47;4971805;28;20444;-54
2023/10/04 10:23:56;;;;;;;;;;;31.70;39.90;;;24.16;41.19;96604.03;4993312;28;20008;-52
2023/10/04 10:26:23;;;;;;;;;;;31.90;39.70;;;24.32;41.62;96596.94;4989652;28;20288;-54
2023/10/04 10:28:58;;;;;;;;;;;32.10;39.50;;;24.37;41.20;96596.72;4993227;28;19909;-54
2023/10/04 10:31:26;;;;;;;;;;;32.20;39.10;;;24.58;41.04;96591.38;4989209;28;20023;-54
2023/10/04 10:33:56;;;;;;;;;;;32.30;38.70;;;24.75;40.67;96595.88;4993516;28;20331;-51
2023/10/04 10:36:28;;;;;;;;;;;32.50;38.50;;;24.95;41.33;96588.06;4993797;28;19981;-53
2023/10/04 10:38:58;;;;;;;;;;;32.70;38.30;;;24.79;40.94;96583.22;4989286;28;19992;-51
2023/10/04 10:41:32;;;;;;;;;;;32.70;38.10;;;25.05;39.77;96582.22;4993718;28;19936;-51
2023/10/04 10:44:19;;;;;;;;;;;32.90;37.90;;;24.97;39.05;96583.84;4990012;28;20008;-51
2023/10/04 10:47:18;;;;;;;;;;;33.00;37.60;;;25.10;40.37;96573.81;4980397;28;19959;-54
2023/10/04 10:50:12;;;;;;;;;;;33.10;37.30;;;25.28;40.28;96585.41;4979077;28;19914;-54
2023/10/04 10:52:41;;;;;;;;;;;33.40;37.30;;;25.38;41.56;96576.78;4993161;28;20293;-49
2023/10/04 10:55:19;;;;;;;;;;;33.70;37.10;;;25.59;39.48;96577.53;4990664;28;19917;-50
2023/10/04 10:57:50;;;;;;;;;;;33.90;36.70;;;25.92;38.98;96589.59;4980114;28;19914;-55
2023/10/04 11:00:20;;;;;;;;;;;34.10;36.40;;;25.56;39.31;96577.41;4987944;28;19924;-55
2023/10/04 11:02:48;;;;;;;;;;;34.40;36.30;;;25.33;39.72;96580.53;4990474;28;19952;-52
2023/10/04 11:05:19;;;;;;;;;;;34.60;36.10;;;25.43;39.71;96584.78;4993054;28;20368;-54
2023/10/04 11:07:47;;;;;;;;;;;34.80;35.60;;;25.19;38.92;96580.00;4990175;28;19913;-55
2023/10/04 11:10:16;;;;;;;;;;;34.60;35.20;;;24.78;40.24;96580.81;4983153;28;20408;-52
2023/10/04 11:12:44;;;;;;;;;;;34.10;35.00;;;24.87;40.05;96582.34;4977823;28;19971;-55
2023/10/04 11:15:10;;;;;;;;;;;33.50;35.10;;;24.42;40.64;96580.25;4980790;28;19916;-56
2023/10/04 11:17:38;;;;;;;;;;;33.00;35.10;;;24.43;40.67;96570.94;4977367;28;19925;-52
2023/10/04 11:20:09;;;;;;;;;;;32.90;35.30;;;24.38;41.53;96573.03;4982845;28;19963;-55
2023/10/04 11:22:39;;;;;;;;;;;32.90;35.10;;;24.42;40.20;96572.09;4988609;28;19936;-52
2023/10/04 11:25:08;;;;;;;;;;;33.00;35.20;;;24.74;40.83;96569.78;4980540;28;20328;-52
2023/10/04 11:27:40;;;;;;;;;;;33.20;35.40;;;25.09;40.08;96564.03;4984604;28;19913;-51
2023/10/04 11:30:11;;;;;;;;;;;33.50;35.40;;;25.41;39.22;96558.97;4966046;28;20008;-54